sensor_id;sensor_type;location;lat;lon;timestamp;pressure;altitude;pressure_sealevel;temperature;humidity
73242;BME280;65659;49.234;-2.094;2023-08-17T00:01:11;100685.99;;;21.79;41.46
73242;BME280;65659;49.234;-2.094;2023-08-17T00:03:37;100688.50;;;21.82;41.47
73242;BME280;65659;49.234;-2.094;2023-08-17T00:06:03;100691.95;;;21.89;41.40
73242;BME280;65659;49.234;-2.094;2023-08-17T00:08:28;100692.81;;;21.70;41.31
73242;BME280;65659;49.234;-2.094;2023-08-17T00:10:54;100689.81;;;21.76;41.32
73242;BME280;65659;49.234;-2.094;2023-08-17T00:13:20;100687.45;;;22.07;41.33
73242;BME280;65659;49.234;-2.094;2023-08-17T00:15:46;100681.85;;;22.35;41.59
73242;BME280;65659;49.234;-2.094;2023-08-17T00:18:11;100680.23;;;22.17;41.74
73242;BME280;65659;49.234;-2.094;2023-08-17T00:20:37;100678.97;;;21.95;41.85
73242;BME280;65659;49.234;-2.094;2023-08-17T00:23:03;100678.29;;;22.17;41.96
73242;BME280;65659;49.234;-2.094;2023-08-17T00:25:29;100674.07;;;21.94;41.97
73242;BME280;65659;49.234;-2.094;2023-08-17T00:27:54;100671.36;;;21.73;41.97
73242;BME280;65659;49.234;-2.094;2023-08-17T00:30:20;100662.44;;;22.20;41.91
73242;BME280;65659;49.234;-2.094;2023-08-17T00:32:46;100660.38;;;22.16;41.81
73242;BME280;65659;49.234;-2.094;2023-08-17T00:35:11;100661.81;;;22.10;41.64
73242;BME280;65659;49.234;-2.094;2023-08-17T00:37:37;100667.77;;;21.75;41.55
73242;BME280;65659;49.234;-2.094;2023-08-17T00:40:03;100666.53;;;21.91;41.66
73242;BME280;65659;49.234;-2.094;2023-08-17T00:42:29;100663.88;;;21.63;41.68
73242;BME280;65659;49.234;-2.094;2023-08-17T00:44:54;100663.79;;;21.80;41.83
73242;BME280;65659;49.234;-2.094;2023-08-17T00:47:20;100662.45;;;21.66;42.06
73242;BME280;65659;49.234;-2.094;2023-08-17T00:49:46;100661.79;;;21.84;42.09
73242;BME280;65659;49.234;-2.094;2023-08-17T00:52:11;100657.42;;;21.52;42.11
73242;BME280;65659;49.234;-2.094;2023-08-17T00:54:37;100652.37;;;21.49;42.13
73242;BME280;65659;49.234;-2.094;2023-08-17T00:57:03;100646.02;;;21.66;42.31
73242;BME280;65659;49.234;-2.094;2023-08-17T00:59:29;100639.70;;;21.60;42.29
73242;BME280;65659;49.234;-2.094;2023-08-17T01:01:55;100641.76;;;21.54;42.00
73242;BME280;65659;49.234;-2.094;2023-08-17T01:04:20;100640.51;;;21.51;42.00
73242;BME280;65659;49.234;-2.094;2023-08-17T01:06:46;100639.20;;;21.50;42.15
73242;BME280;65659;49.234;-2.094;2023-08-17T01:09:11;100644.70;;;21.51;42.25
73242;BME280;65659;49.234;-2.094;2023-08-17T01:11:44;100644.12;;;21.47;42.37
73242;BME280;65659;49.234;-2.094;2023-08-17T01:14:09;100647.86;;;21.47;42.46
73242;BME280;65659;49.234;-2.094;2023-08-17T01:16:35;100640.29;;;21.23;42.54
73242;BME280;65659;49.234;-2.094;2023-08-17T01:18:55;100640.05;;;21.26;42.69
73242;BME280;65659;49.234;-2.094;2023-08-17T01:21:21;100634.58;;;21.52;42.83
73242;BME280;65659;49.234;-2.094;2023-08-17T01:23:46;100633.58;;;21.27;43.00
73242;BME280;65659;49.234;-2.094;2023-08-17T01:26:11;100632.62;;;21.55;42.84
73242;BME280;65659;49.234;-2.094;2023-08-17T01:28:37;100629.85;;;21.32;42.49
73242;BME280;65659;49.234;-2.094;2023-08-17T01:31:08;100625.52;;;21.59;42.46
73242;BME280;65659;49.234;-2.094;2023-08-17T01:33:33;100620.59;;;21.38;42.52
73242;BME280;65659;49.234;-2.094;2023-08-17T01:36:01;100620.62;;;21.65;42.46
73242;BME280;65659;49.234;-2.094;2023-08-17T01:38:21;100622.52;;;21.63;42.47
73242;BME280;65659;49.234;-2.094;2023-08-17T01:40:48;100619.84;;;21.61;42.67
73242;BME280;65659;49.234;-2.094;2023-08-17T01:43:12;100620.23;;;21.35;42.69
73242;BME280;65659;49.234;-2.094;2023-08-17T01:45:37;100616.07;;;21.54;42.54
73242;BME280;65659;49.234;-2.094;2023-08-17T01:48:04;100613.18;;;21.25;42.67
73242;BME280;65659;49.234;-2.094;2023-08-17T01:50:29;100609.45;;;21.21;42.93
73242;BME280;65659;49.234;-2.094;2023-08-17T01:52:55;100604.98;;;21.40;43.19
73242;BME280;65659;49.234;-2.094;2023-08-17T01:55:21;100609.79;;;21.37;43.74
73242;BME280;65659;49.234;-2.094;2023-08-17T01:57:46;100609.29;;;21.30;44.42
73242;BME280;65659;49.234;-2.094;2023-08-17T02:00:13;100611.55;;;20.76;44.80
73242;BME280;65659;49.234;-2.094;2023-08-17T02:02:37;100607.15;;;21.17;45.11
73242;BME280;65659;49.234;-2.094;2023-08-17T02:05:04;100607.53;;;21.15;45.39
73242;BME280;65659;49.234;-2.094;2023-08-17T02:07:29;100605.50;;;21.17;45.57
73242;BME280;65659;49.234;-2.094;2023-08-17T02:09:55;100609.42;;;21.18;45.60
73242;BME280;65659;49.234;-2.094;2023-08-17T02:12:20;100604.20;;;21.24;45.53
73242;BME280;65659;49.234;-2.094;2023-08-17T02:14:46;100601.08;;;21.29;45.44
73242;BME280;65659;49.234;-2.094;2023-08-17T02:17:12;100598.36;;;21.32;45.45
73242;BME280;65659;49.234;-2.094;2023-08-17T02:19:38;100592.85;;;21.35;45.57
73242;BME280;65659;49.234;-2.094;2023-08-17T02:22:04;100590.25;;;21.33;45.87
73242;BME280;65659;49.234;-2.094;2023-08-17T02:24:29;100583.90;;;21.32;45.82
73242;BME280;65659;49.234;-2.094;2023-08-17T02:26:54;100584.23;;;21.33;45.65
73242;BME280;65659;49.234;-2.094;2023-08-17T02:29:20;100581.58;;;21.33;45.54
73242;BME280;65659;49.234;-2.094;2023-08-17T02:31:46;100584.30;;;21.30;45.60
73242;BME280;65659;49.234;-2.094;2023-08-17T02:34:12;100587.71;;;21.29;45.88
73242;BME280;65659;49.234;-2.094;2023-08-17T02:36:37;100590.59;;;21.29;46.00
73242;BME280;65659;49.234;-2.094;2023-08-17T02:39:03;100588.41;;;21.35;46.04
73242;BME280;65659;49.234;-2.094;2023-08-17T02:41:29;100584.65;;;21.41;45.96
73242;BME280;65659;49.234;-2.094;2023-08-17T02:43:55;100578.85;;;21.45;45.87
73242;BME280;65659;49.234;-2.094;2023-08-17T02:46:21;100575.94;;;21.51;45.71
73242;BME280;65659;49.234;-2.094;2023-08-17T02:48:46;100573.33;;;21.57;45.57
73242;BME280;65659;49.234;-2.094;2023-08-17T02:51:12;100575.58;;;21.63;45.57
73242;BME280;65659;49.234;-2.094;2023-08-17T02:53:37;100574.05;;;21.68;45.60
73242;BME280;65659;49.234;-2.094;2023-08-17T02:56:03;100572.25;;;21.50;45.64
73242;BME280;65659;49.234;-2.094;2023-08-17T02:58:29;100571.16;;;21.74;45.78
73242;BME280;65659;49.234;-2.094;2023-08-17T03:00:54;100571.80;;;21.80;45.87
73242;BME280;65659;49.234;-2.094;2023-08-17T03:03:20;100573.18;;;21.85;46.08
73242;BME280;65659;49.234;-2.094;2023-08-17T03:05:46;100572.67;;;21.83;46.36
73242;BME280;65659;49.234;-2.094;2023-08-17T03:08:12;100568.79;;;21.84;46.63
73242;BME280;65659;49.234;-2.094;2023-08-17T03:10:38;100569.80;;;21.60;46.93
73242;BME280;65659;49.234;-2.094;2023-08-17T03:13:03;100575.41;;;21.63;46.97
73242;BME280;65659;49.234;-2.094;2023-08-17T03:15:29;100574.33;;;21.63;47.04
73242;BME280;65659;49.234;-2.094;2023-08-17T03:17:55;100570.19;;;21.88;47.05
73242;BME280;65659;49.234;-2.094;2023-08-17T03:20:20;100567.07;;;21.64;46.96
73242;BME280;65659;49.234;-2.094;2023-08-17T03:22:46;100568.58;;;21.86;47.02
73242;BME280;65659;49.234;-2.094;2023-08-17T03:25:11;100568.22;;;21.66;47.00
73242;BME280;65659;49.234;-2.094;2023-08-17T03:27:37;100563.59;;;21.41;47.15
73242;BME280;65659;49.234;-2.094;2023-08-17T03:30:03;100560.76;;;21.41;47.28
73242;BME280;65659;49.234;-2.094;2023-08-17T03:32:29;100558.10;;;21.44;47.40
73242;BME280;65659;49.234;-2.094;2023-08-17T03:34:54;100557.59;;;21.68;47.62
73242;BME280;65659;49.234;-2.094;2023-08-17T03:37:20;100557.72;;;21.72;47.69
73242;BME280;65659;49.234;-2.094;2023-08-17T03:39:45;100551.49;;;21.73;47.85
73242;BME280;65659;49.234;-2.094;2023-08-17T03:42:11;100548.00;;;21.73;48.01
73242;BME280;65659;49.234;-2.094;2023-08-17T03:44:36;100541.31;;;21.77;48.10
73242;BME280;65659;49.234;-2.094;2023-08-17T03:47:02;100536.97;;;21.53;48.38
73242;BME280;65659;49.234;-2.094;2023-08-17T03:49:28;100535.87;;;21.75;48.67
73242;BME280;65659;49.234;-2.094;2023-08-17T03:51:53;100534.99;;;21.54;48.85
73242;BME280;65659;49.234;-2.094;2023-08-17T03:54:19;100530.27;;;21.82;48.99
73242;BME280;65659;49.234;-2.094;2023-08-17T03:56:45;100529.41;;;22.01;49.63
73242;BME280;65659;49.234;-2.094;2023-08-17T03:59:10;100525.65;;;21.74;49.88
73242;BME280;65659;49.234;-2.094;2023-08-17T04:01:36;100524.38;;;21.68;50.29
73242;BME280;65659;49.234;-2.094;2023-08-17T04:04:01;100520.03;;;21.64;50.55
73242;BME280;65659;49.234;-2.094;2023-08-17T04:06:26;100517.42;;;21.63;50.64
73242;BME280;65659;49.234;-2.094;2023-08-17T04:08:53;100517.53;;;21.62;50.85
73242;BME280;65659;49.234;-2.094;2023-08-17T04:11:18;100514.96;;;21.35;51.11
73242;BME280;65659;49.234;-2.094;2023-08-17T04:13:43;100510.15;;;21.78;51.25
73242;BME280;65659;49.234;-2.094;2023-08-17T04:16:08;100509.27;;;21.48;51.48
73242;BME280;65659;49.234;-2.094;2023-08-17T04:18:34;100507.30;;;21.62;51.82
73242;BME280;65659;49.234;-2.094;2023-08-17T04:20:59;100508.85;;;21.60;51.85
73242;BME280;65659;49.234;-2.094;2023-08-17T04:23:25;100513.65;;;21.53;52.04
73242;BME280;65659;49.234;-2.094;2023-08-17T04:25:50;100518.53;;;21.24;52.20
73242;BME280;65659;49.234;-2.094;2023-08-17T04:28:15;100521.56;;;21.45;52.26
73242;BME280;65659;49.234;-2.094;2023-08-17T04:30:40;100518.65;;;21.20;52.41
73242;BME280;65659;49.234;-2.094;2023-08-17T04:33:05;100510.88;;;21.43;52.66
73242;BME280;65659;49.234;-2.094;2023-08-17T04:35:31;100506.39;;;21.37;52.71
73242;BME280;65659;49.234;-2.094;2023-08-17T04:37:56;100507.07;;;21.40;52.81
73242;BME280;65659;49.234;-2.094;2023-08-17T04:40:22;100510.09;;;21.45;52.83
73242;BME280;65659;49.234;-2.094;2023-08-17T04:42:47;100511.03;;;21.30;52.73
73242;BME280;65659;49.234;-2.094;2023-08-17T04:45:12;100515.25;;;21.57;52.83
73242;BME280;65659;49.234;-2.094;2023-08-17T04:47:38;100513.68;;;21.65;52.78
73242;BME280;65659;49.234;-2.094;2023-08-17T04:50:03;100513.65;;;21.66;52.82
73242;BME280;65659;49.234;-2.094;2023-08-17T04:52:28;100513.67;;;21.48;52.79
73242;BME280;65659;49.234;-2.094;2023-08-17T04:54:54;100514.30;;;21.71;52.89
73242;BME280;65659;49.234;-2.094;2023-08-17T04:57:19;100514.57;;;21.70;52.96
73242;BME280;65659;49.234;-2.094;2023-08-17T04:59:44;100518.51;;;21.46;53.01
73242;BME280;65659;49.234;-2.094;2023-08-17T05:02:10;100519.85;;;21.46;53.05
73242;BME280;65659;49.234;-2.094;2023-08-17T05:04:36;100519.58;;;21.45;53.09
73242;BME280;65659;49.234;-2.094;2023-08-17T05:07:01;100519.20;;;21.64;53.27
73242;BME280;65659;49.234;-2.094;2023-08-17T05:09:27;100516.10;;;21.35;53.40
73242;BME280;65659;49.234;-2.094;2023-08-17T05:11:52;100512.14;;;21.30;53.54
73242;BME280;65659;49.234;-2.094;2023-08-17T05:14:17;100513.97;;;21.28;53.56
73242;BME280;65659;49.234;-2.094;2023-08-17T05:16:43;100510.73;;;21.49;53.64
73242;BME280;65659;49.234;-2.094;2023-08-17T05:19:09;100505.35;;;21.19;53.75
73242;BME280;65659;49.234;-2.094;2023-08-17T05:21:35;100502.20;;;21.39;53.82
73242;BME280;65659;49.234;-2.094;2023-08-17T05:23:59;100500.11;;;21.13;53.88
73242;BME280;65659;49.234;-2.094;2023-08-17T05:26:25;100503.90;;;21.39;53.85
73242;BME280;65659;49.234;-2.094;2023-08-17T05:28:50;100505.30;;;21.15;53.91
73242;BME280;65659;49.234;-2.094;2023-08-17T05:31:15;100506.02;;;21.38;54.00
73242;BME280;65659;49.234;-2.094;2023-08-17T05:33:41;100508.16;;;21.37;54.03
73242;BME280;65659;49.234;-2.094;2023-08-17T05:36:07;100506.12;;;21.11;54.12
73242;BME280;65659;49.234;-2.094;2023-08-17T05:38:33;100509.08;;;21.11;54.24
73242;BME280;65659;49.234;-2.094;2023-08-17T05:40:59;100513.94;;;21.09;54.30
73242;BME280;65659;49.234;-2.094;2023-08-17T05:43:25;100512.50;;;21.11;54.27
73242;BME280;65659;49.234;-2.094;2023-08-17T05:45:49;100512.56;;;21.10;54.44
73242;BME280;65659;49.234;-2.094;2023-08-17T05:48:14;100514.03;;;21.40;54.37
73242;BME280;65659;49.234;-2.094;2023-08-17T05:50:41;100510.65;;;21.40;54.33
73242;BME280;65659;49.234;-2.094;2023-08-17T05:53:05;100505.82;;;21.34;54.53
73242;BME280;65659;49.234;-2.094;2023-08-17T05:55:31;100504.94;;;21.15;54.51
73242;BME280;65659;49.234;-2.094;2023-08-17T05:57:57;100506.61;;;21.12;54.56
73242;BME280;65659;49.234;-2.094;2023-08-17T06:00:22;100508.82;;;21.40;54.55
73242;BME280;65659;49.234;-2.094;2023-08-17T06:02:47;100509.65;;;21.17;54.56
73242;BME280;65659;49.234;-2.094;2023-08-17T06:05:12;100509.35;;;21.20;54.54
73242;BME280;65659;49.234;-2.094;2023-08-17T06:07:38;100505.66;;;21.06;54.54
73242;BME280;65659;49.234;-2.094;2023-08-17T06:10:04;100501.82;;;21.29;54.55
73242;BME280;65659;49.234;-2.094;2023-08-17T06:12:28;100500.64;;;21.51;54.58
73242;BME280;65659;49.234;-2.094;2023-08-17T06:14:54;100499.82;;;21.30;54.58
73242;BME280;65659;49.234;-2.094;2023-08-17T06:17:19;100497.16;;;21.37;54.56
73242;BME280;65659;49.234;-2.094;2023-08-17T06:19:45;100498.03;;;21.40;54.61
73242;BME280;65659;49.234;-2.094;2023-08-17T06:22:10;100503.73;;;21.26;54.46
73242;BME280;65659;49.234;-2.094;2023-08-17T06:24:36;100500.16;;;21.42;54.30
73242;BME280;65659;49.234;-2.094;2023-08-17T06:27:01;100503.90;;;21.74;54.27
73242;BME280;65659;49.234;-2.094;2023-08-17T06:29:27;100502.53;;;21.07;54.29
73242;BME280;65659;49.234;-2.094;2023-08-17T06:31:52;100500.86;;;21.66;54.16
73242;BME280;65659;49.234;-2.094;2023-08-17T06:34:17;100504.52;;;21.74;54.15
73242;BME280;65659;49.234;-2.094;2023-08-17T06:39:08;100506.47;;;21.67;53.95
73242;BME280;65659;49.234;-2.094;2023-08-17T06:41:34;100503.40;;;21.55;53.88
73242;BME280;65659;49.234;-2.094;2023-08-17T06:43:59;100501.50;;;21.89;53.73
73242;BME280;65659;49.234;-2.094;2023-08-17T06:46:25;100498.88;;;21.77;53.60
73242;BME280;65659;49.234;-2.094;2023-08-17T06:48:51;100498.68;;;21.96;53.32
73242;BME280;65659;49.234;-2.094;2023-08-17T06:51:17;100502.12;;;21.86;53.23
73242;BME280;65659;49.234;-2.094;2023-08-17T06:53:42;100503.28;;;21.86;52.89
73242;BME280;65659;49.234;-2.094;2023-08-17T06:56:09;100502.27;;;22.31;52.56
73242;BME280;65659;49.234;-2.094;2023-08-17T06:58:33;100503.46;;;22.28;52.26
73242;BME280;65659;49.234;-2.094;2023-08-17T07:00:58;100503.92;;;22.50;51.86
73242;BME280;65659;49.234;-2.094;2023-08-17T07:03:25;100508.99;;;22.60;51.68
73242;BME280;65659;49.234;-2.094;2023-08-17T07:05:49;100509.82;;;22.07;51.40
73242;BME280;65659;49.234;-2.094;2023-08-17T07:08:14;100503.18;;;22.15;50.81
73242;BME280;65659;49.234;-2.094;2023-08-17T07:10:40;100502.84;;;22.31;50.47
73242;BME280;65659;49.234;-2.094;2023-08-17T07:13:05;100492.82;;;22.64;50.26
73242;BME280;65659;49.234;-2.094;2023-08-17T07:15:31;100489.61;;;22.48;50.07
73242;BME280;65659;49.234;-2.094;2023-08-17T07:17:56;100489.99;;;22.61;50.18
73242;BME280;65659;49.234;-2.094;2023-08-17T07:20:22;100493.54;;;22.32;50.21
73242;BME280;65659;49.234;-2.094;2023-08-17T07:22:48;100492.95;;;22.44;49.99
73242;BME280;65659;49.234;-2.094;2023-08-17T07:25:14;100494.23;;;22.61;49.75
73242;BME280;65659;49.234;-2.094;2023-08-17T07:27:39;100491.35;;;22.82;49.41
73242;BME280;65659;49.234;-2.094;2023-08-17T07:30:05;100489.48;;;22.87;49.38
73242;BME280;65659;49.234;-2.094;2023-08-17T07:32:30;100487.53;;;22.61;49.18
73242;BME280;65659;49.234;-2.094;2023-08-17T07:34:55;100492.09;;;22.73;48.98
73242;BME280;65659;49.234;-2.094;2023-08-17T07:37:21;100486.32;;;22.78;48.89
73242;BME280;65659;49.234;-2.094;2023-08-17T07:39:46;100488.95;;;22.85;48.73
73242;BME280;65659;49.234;-2.094;2023-08-17T07:42:11;100493.85;;;23.01;48.47
73242;BME280;65659;49.234;-2.094;2023-08-17T07:44:38;100490.78;;;23.17;48.14
73242;BME280;65659;49.234;-2.094;2023-08-17T07:47:03;100492.10;;;22.79;48.01
73242;BME280;65659;49.234;-2.094;2023-08-17T07:49:29;100490.92;;;23.07;47.95
73242;BME280;65659;49.234;-2.094;2023-08-17T07:51:54;100491.35;;;23.32;47.93
73242;BME280;65659;49.234;-2.094;2023-08-17T07:54:20;100486.54;;;22.95;47.71
73242;BME280;65659;49.234;-2.094;2023-08-17T07:56:46;100488.74;;;23.22;47.18
73242;BME280;65659;49.234;-2.094;2023-08-17T07:59:13;100487.99;;;23.23;46.70
73242;BME280;65659;49.234;-2.094;2023-08-17T08:01:37;100487.84;;;23.63;46.43
73242;BME280;65659;49.234;-2.094;2023-08-17T08:04:07;100488.05;;;23.36;46.11
73242;BME280;65659;49.234;-2.094;2023-08-17T08:06:28;100489.56;;;24.01;45.87
73242;BME280;65659;49.234;-2.094;2023-08-17T08:08:54;100494.21;;;23.71;45.62
73242;BME280;65659;49.234;-2.094;2023-08-17T08:11:24;100495.42;;;23.85;45.30
73242;BME280;65659;49.234;-2.094;2023-08-17T08:13:46;100494.47;;;24.20;44.98
73242;BME280;65659;49.234;-2.094;2023-08-17T08:16:18;100497.03;;;24.11;44.69
73242;BME280;65659;49.234;-2.094;2023-08-17T08:18:37;100498.11;;;23.93;44.60
73242;BME280;65659;49.234;-2.094;2023-08-17T08:21:02;100498.80;;;24.33;44.41
73242;BME280;65659;49.234;-2.094;2023-08-17T08:23:28;100500.72;;;24.35;44.07
73242;BME280;65659;49.234;-2.094;2023-08-17T08:25:54;100499.51;;;24.59;43.60
73242;BME280;65659;49.234;-2.094;2023-08-17T08:28:19;100498.93;;;24.67;43.46
73242;BME280;65659;49.234;-2.094;2023-08-17T08:30:46;100490.79;;;24.72;43.25
73242;BME280;65659;49.234;-2.094;2023-08-17T08:33:10;100492.52;;;24.66;43.17
73242;BME280;65659;49.234;-2.094;2023-08-17T08:35:41;100489.34;;;24.86;42.90
73242;BME280;65659;49.234;-2.094;2023-08-17T08:38:01;100490.59;;;25.39;42.62
73242;BME280;65659;49.234;-2.094;2023-08-17T08:40:30;100490.40;;;24.87;42.78
73242;BME280;65659;49.234;-2.094;2023-08-17T08:42:59;100490.55;;;24.92;42.82
73242;BME280;65659;49.234;-2.094;2023-08-17T08:45:19;100493.22;;;24.93;42.47
73242;BME280;65659;49.234;-2.094;2023-08-17T08:47:45;100492.73;;;24.76;42.58
73242;BME280;65659;49.234;-2.094;2023-08-17T08:50:14;100485.27;;;24.72;42.68
73242;BME280;65659;49.234;-2.094;2023-08-17T08:52:38;100486.28;;;24.83;42.47
73242;BME280;65659;49.234;-2.094;2023-08-17T08:55:06;100486.00;;;24.84;42.41
73242;BME280;65659;49.234;-2.094;2023-08-17T08:57:28;100484.60;;;25.12;42.37
73242;BME280;65659;49.234;-2.094;2023-08-17T08:59:55;100481.10;;;24.91;42.28
73242;BME280;65659;49.234;-2.094;2023-08-17T09:02:19;100485.58;;;25.02;42.24
73242;BME280;65659;49.234;-2.094;2023-08-17T09:04:45;100485.46;;;25.18;42.05
73242;BME280;65659;49.234;-2.094;2023-08-17T09:07:14;100483.17;;;25.07;41.53
73242;BME280;65659;49.234;-2.094;2023-08-17T09:09:38;100484.69;;;25.29;41.59
73242;BME280;65659;49.234;-2.094;2023-08-17T09:11:59;100488.19;;;25.11;41.59
73242;BME280;65659;49.234;-2.094;2023-08-17T09:14:32;100485.43;;;25.61;41.61
73242;BME280;65659;49.234;-2.094;2023-08-17T09:16:51;100481.65;;;25.56;41.56
73242;BME280;65659;49.234;-2.094;2023-08-17T09:19:18;100482.52;;;25.69;41.33
73242;BME280;65659;49.234;-2.094;2023-08-17T09:21:43;100483.24;;;25.88;41.30
73242;BME280;65659;49.234;-2.094;2023-08-17T09:24:08;100479.53;;;25.51;41.16
73242;BME280;65659;49.234;-2.094;2023-08-17T09:26:34;100472.93;;;25.64;40.77
73242;BME280;65659;49.234;-2.094;2023-08-17T09:29:00;100473.10;;;25.88;40.61
73242;BME280;65659;49.234;-2.094;2023-08-17T09:31:28;100470.15;;;25.62;40.63
73242;BME280;65659;49.234;-2.094;2023-08-17T09:36:20;100469.83;;;25.61;40.62
73242;BME280;65659;49.234;-2.094;2023-08-17T09:38:44;100468.19;;;25.85;40.31
73242;BME280;65659;49.234;-2.094;2023-08-17T09:41:08;100464.76;;;25.95;40.24
73242;BME280;65659;49.234;-2.094;2023-08-17T09:43:33;100466.88;;;26.07;40.10
73242;BME280;65659;49.234;-2.094;2023-08-17T09:46:01;100468.76;;;26.09;39.76
73242;BME280;65659;49.234;-2.094;2023-08-17T09:48:28;100464.90;;;26.03;39.81
73242;BME280;65659;49.234;-2.094;2023-08-17T09:50:51;100460.95;;;26.08;39.86
73242;BME280;65659;49.234;-2.094;2023-08-17T09:53:18;100462.27;;;26.11;39.85
73242;BME280;65659;49.234;-2.094;2023-08-17T09:55:43;100457.93;;;26.25;39.67
73242;BME280;65659;49.234;-2.094;2023-08-17T09:58:08;100457.63;;;25.99;39.76
73242;BME280;65659;49.234;-2.094;2023-08-17T10:00:34;100449.69;;;26.31;39.56
73242;BME280;65659;49.234;-2.094;2023-08-17T10:02:59;100454.84;;;26.15;39.69
73242;BME280;65659;49.234;-2.094;2023-08-17T10:05:24;100453.94;;;26.55;39.63
73242;BME280;65659;49.234;-2.094;2023-08-17T10:07:56;100453.49;;;26.54;39.42
73242;BME280;65659;49.234;-2.094;2023-08-17T10:10:16;100454.26;;;26.58;39.45
73242;BME280;65659;49.234;-2.094;2023-08-17T10:12:50;100448.74;;;26.19;39.30
73242;BME280;65659;49.234;-2.094;2023-08-17T10:15:10;100450.34;;;26.63;39.15
73242;BME280;65659;49.234;-2.094;2023-08-17T10:17:37;100447.57;;;26.39;39.31
73242;BME280;65659;49.234;-2.094;2023-08-17T10:19:59;100448.20;;;26.32;39.54
73242;BME280;65659;49.234;-2.094;2023-08-17T10:22:33;100452.67;;;25.86;39.49
73242;BME280;65659;49.234;-2.094;2023-08-17T10:24:47;100455.12;;;26.28;39.59
73242;BME280;65659;49.234;-2.094;2023-08-17T10:27:15;100452.89;;;26.18;39.90
73242;BME280;65659;49.234;-2.094;2023-08-17T10:29:42;100454.32;;;26.16;39.82
73242;BME280;65659;49.234;-2.094;2023-08-17T10:32:15;100455.52;;;25.86;40.10
73242;BME280;65659;49.234;-2.094;2023-08-17T10:34:34;100452.61;;;26.03;40.02
73242;BME280;65659;49.234;-2.094;2023-08-17T10:36:59;100451.95;;;26.56;39.67
73242;BME280;65659;49.234;-2.094;2023-08-17T10:39:23;100448.39;;;26.34;39.67
73242;BME280;65659;49.234;-2.094;2023-08-17T10:41:48;100450.79;;;26.26;39.80
73242;BME280;65659;49.234;-2.094;2023-08-17T10:44:12;100444.29;;;26.54;39.92
73242;BME280;65659;49.234;-2.094;2023-08-17T10:46:36;100443.08;;;27.37;39.95
73242;BME280;65659;49.234;-2.094;2023-08-17T10:49:05;100449.79;;;26.31;40.57
73242;BME280;65659;49.234;-2.094;2023-08-17T10:51:27;100453.19;;;26.57;40.37
73242;BME280;65659;49.234;-2.094;2023-08-17T10:53:53;100452.32;;;26.69;39.95
73242;BME280;65659;49.234;-2.094;2023-08-17T10:56:17;100442.95;;;26.88;39.66
73242;BME280;65659;49.234;-2.094;2023-08-17T10:58:45;100445.42;;;26.94;39.62
73242;BME280;65659;49.234;-2.094;2023-08-17T11:01:09;100442.20;;;26.80;39.52
73242;BME280;65659;49.234;-2.094;2023-08-17T11:03:34;100442.37;;;27.14;39.46
73242;BME280;65659;49.234;-2.094;2023-08-17T11:08:31;100441.94;;;27.03;39.16
73242;BME280;65659;49.234;-2.094;2023-08-17T11:10:58;100440.14;;;27.11;39.20
73242;BME280;65659;49.234;-2.094;2023-08-17T11:13:16;100437.77;;;27.26;39.01
73242;BME280;65659;49.234;-2.094;2023-08-17T11:15:43;100438.47;;;27.32;39.01
73242;BME280;65659;49.234;-2.094;2023-08-17T11:18:07;100437.78;;;27.48;38.91
73242;BME280;65659;49.234;-2.094;2023-08-17T11:20:34;100434.50;;;27.53;38.77
73242;BME280;65659;49.234;-2.094;2023-08-17T11:22:59;100428.08;;;27.62;38.48
73242;BME280;65659;49.234;-2.094;2023-08-17T11:25:23;100424.26;;;27.49;38.36
73242;BME280;65659;49.234;-2.094;2023-08-17T11:27:49;100423.88;;;27.72;38.43
73242;BME280;65659;49.234;-2.094;2023-08-17T11:30:14;100424.91;;;27.93;38.30
73242;BME280;65659;49.234;-2.094;2023-08-17T11:32:39;100423.10;;;27.94;38.05
73242;BME280;65659;49.234;-2.094;2023-08-17T11:35:04;100426.16;;;28.15;38.15
73242;BME280;65659;49.234;-2.094;2023-08-17T11:37:30;100417.04;;;27.59;38.31
73242;BME280;65659;49.234;-2.094;2023-08-17T11:39:56;100415.60;;;27.62;38.10
73242;BME280;65659;49.234;-2.094;2023-08-17T11:42:23;100414.99;;;27.67;38.14
73242;BME280;65659;49.234;-2.094;2023-08-17T11:44:48;100410.53;;;27.81;38.01
73242;BME280;65659;49.234;-2.094;2023-08-17T11:47:13;100412.45;;;28.18;37.89
73242;BME280;65659;49.234;-2.094;2023-08-17T11:49:38;100413.20;;;28.30;37.76
73242;BME280;65659;49.234;-2.094;2023-08-17T11:52:09;100405.33;;;28.13;37.52
73242;BME280;65659;49.234;-2.094;2023-08-17T11:54:29;100406.39;;;28.11;37.39
73242;BME280;65659;49.234;-2.094;2023-08-17T11:56:54;100405.41;;;28.34;37.14
73242;BME280;65659;49.234;-2.094;2023-08-17T11:59:21;100405.91;;;28.45;37.16
73242;BME280;65659;49.234;-2.094;2023-08-17T12:01:45;100402.49;;;28.56;36.87
73242;BME280;65659;49.234;-2.094;2023-08-17T12:04:11;100401.86;;;28.83;36.85
73242;BME280;65659;49.234;-2.094;2023-08-17T12:06:44;100398.65;;;29.02;36.55
73242;BME280;65659;49.234;-2.094;2023-08-17T12:09:03;100401.31;;;29.07;36.34
73242;BME280;65659;49.234;-2.094;2023-08-17T12:11:27;100396.42;;;28.81;36.12
73242;BME280;65659;49.234;-2.094;2023-08-17T12:13:54;100393.52;;;29.21;35.93
73242;BME280;65659;49.234;-2.094;2023-08-17T12:16:19;100392.15;;;29.25;35.80
73242;BME280;65659;49.234;-2.094;2023-08-17T12:18:45;100394.12;;;29.11;35.65
73242;BME280;65659;49.234;-2.094;2023-08-17T12:21:10;100395.35;;;29.20;35.60
73242;BME280;65659;49.234;-2.094;2023-08-17T12:23:36;100392.05;;;29.52;35.69
73242;BME280;65659;49.234;-2.094;2023-08-17T12:26:01;100389.49;;;29.47;35.61
73242;BME280;65659;49.234;-2.094;2023-08-17T12:28:27;100387.66;;;29.49;35.18
73242;BME280;65659;49.234;-2.094;2023-08-17T12:30:57;100384.09;;;29.68;35.07
73242;BME280;65659;49.234;-2.094;2023-08-17T12:33:16;100379.89;;;30.15;34.93
73242;BME280;65659;49.234;-2.094;2023-08-17T12:35:42;100377.20;;;30.15;34.67
73242;BME280;65659;49.234;-2.094;2023-08-17T12:38:08;100368.98;;;29.97;34.65